Time;durP1;ratioP1;P1;durP2;ratioP2;P2;SDS_P1;SDS_P2;PMS_P1;PMS_P2;Temp;Humidity;BMP_temperature;BMP_pressure;BME280_temperature;BME280_humidity;BME280_pressure;Samples;Min_cycle;Max_cycle;Signal;HPM_P1;HPM_P2
2022/02/08 00:00:19;;;;;;;16.83;4.95;;;;;;;8.83;64.26;102726.28;5021174;28;20052;-65
2022/02/08 00:02:51;;;;;;;24.63;4.72;;;;;;;9.02;63.94;102727.66;5000456;28;20052;-64
2022/02/08 00:05:20;;;;;;;15.20;4.10;;;;;;;8.80;64.36;102714.97;5033452;28;20203;-64
2022/02/08 00:07:51;;;;;;;20.42;5.35;;;;;;;8.61;64.83;102714.38;5032442;28;20492;-61
2022/02/08 00:10:22;;;;;;;16.50;4.38;;;;;;;8.94;64.13;102714.31;5033444;28;20069;-65
2022/02/08 00:12:54;;;;;;;19.27;4.60;;;;;;;8.94;64.14;102719.00;4987189;28;20049;-64
2022/02/08 00:15:21;;;;;;;21.48;4.57;;;;;;;8.80;64.77;102725.94;5034050;28;20054;-65
2022/02/08 00:17:48;;;;;;;21.23;4.63;;;;;;;8.74;64.84;102722.28;5016005;28;20050;-61
2022/02/08 00:20:15;;;;;;;19.17;4.72;;;;;;;8.78;64.89;102719.88;5021958;28;20041;-61
2022/02/08 00:22:43;;;;;;;23.73;5.20;;;;;;;9.00;64.43;102715.22;5016313;28;20058;-60
2022/02/08 00:25:10;;;;;;;16.42;4.50;;;;;;;8.98;64.47;102720.16;5034164;28;20072;-61
2022/02/08 00:27:37;;;;;;;13.65;4.20;;;;;;;9.17;64.29;102718.75;5027830;28;20484;-61
2022/02/08 00:30:06;;;;;;;19.48;5.05;;;;;;;9.18;64.00;102714.94;5005912;28;20060;-61
2022/02/08 00:32:33;;;;;;;20.10;4.90;;;;;;;9.20;63.97;102718.25;5003779;28;20519;-61
2022/02/08 00:35:00;;;;;;;22.80;5.07;;;;;;;9.27;63.77;102720.81;5015830;28;20424;-61
2022/02/08 00:37:29;;;;;;;23.73;4.65;;;;;;;9.09;64.46;102721.94;5030900;28;20056;-61
2022/02/08 00:39:56;;;;;;;19.15;4.88;;;;;;;8.89;65.22;102718.94;5032814;28;20049;-61
2022/02/08 00:42:24;;;;;;;22.58;5.22;;;;;;;9.19;64.78;102719.31;4981199;28;20057;-61
2022/02/08 00:45:06;;;;;;;23.20;5.05;;;;;;;9.25;64.25;102718.31;5016178;28;20046;-60
2022/02/08 00:47:39;;;;;;;23.52;5.90;;;;;;;9.07;64.39;102722.22;5016322;28;20049;-60
2022/02/08 00:50:09;;;;;;;25.88;5.70;;;;;;;9.11;64.71;102725.28;5037561;28;20049;-61
2022/02/08 00:52:38;;;;;;;19.60;5.32;;;;;;;8.98;64.70;102715.50;5007961;28;20072;-60
2022/02/08 00:55:09;;;;;;;23.42;5.47;;;;;;;8.90;65.21;102710.44;5033750;28;20519;-61
2022/02/08 00:57:37;;;;;;;27.05;5.43;;;;;;;8.90;65.22;102704.94;5011954;28;20421;-60
2022/02/08 01:00:06;;;;;;;23.55;5.60;;;;;;;9.00;65.29;102715.22;5030003;28;20056;-60
2022/02/08 01:02:35;;;;;;;21.67;5.07;;;;;;;9.01;65.18;102703.16;4988058;28;20049;-61
2022/02/08 01:05:05;;;;;;;18.92;5.40;;;;;;;8.93;64.95;102704.44;5030591;28;20049;-62
2022/02/08 01:07:32;;;;;;;19.10;5.07;;;;;;;8.69;66.00;102704.91;5026473;28;20045;-60
2022/02/08 01:10:01;;;;;;;18.83;4.85;;;;;;;8.84;65.92;102711.44;5006887;28;20050;-61
2022/02/08 01:12:32;;;;;;;25.60;5.40;;;;;;;9.00;65.44;102713.31;4996448;28;20045;-61
2022/02/08 01:15:00;;;;;;;19.08;4.43;;;;;;;9.08;65.23;102714.81;5030225;28;20061;-61
2022/02/08 01:17:29;;;;;;;20.10;5.10;;;;;;;9.06;65.65;102711.47;4999947;28;20057;-60
2022/02/08 01:20:11;;;;;;;19.98;4.72;;;;;;;9.02;65.53;102713.06;5034983;28;20068;-61
2022/02/08 01:22:40;;;;;;;22.70;5.28;;;;;;;9.19;65.52;102711.09;5024269;28;20386;-62
2022/02/08 01:25:17;;;;;;;20.13;5.05;;;;;;;9.27;65.15;102723.56;5029459;28;20050;-61
2022/02/08 01:27:51;;;;;;;22.63;4.57;;;;;;;9.31;65.04;102727.47;5032703;28;20065;-61
2022/02/08 01:30:31;;;;;;;16.33;4.43;;;;;;;9.62;64.19;102726.72;5035357;28;20504;-61
2022/02/08 01:38:15;;;;;;;19.25;4.00;;;;;;;9.49;64.47;102735.38;5001790;28;20433;-61
2022/02/08 01:46:50;;;;;;;18.02;4.75;;;;;;;9.39;65.11;102735.25;4988976;28;20058;-61
2022/02/08 01:49:56;;;;;;;17.85;4.07;;;;;;;9.43;65.01;102744.66;5018665;28;20049;-62
2022/02/08 01:52:07;;;;;;;21.17;4.65;;;;;;;9.08;65.86;102743.09;5019108;28;20050;-61
2022/02/08 01:54:34;;;;;;;16.10;5.03;;;;;;;9.28;65.96;102736.22;5006159;28;20049;-61
2022/02/08 01:57:03;;;;;;;16.17;4.07;;;;;;;9.46;65.02;102738.66;5007781;28;20057;-61
2022/02/08 01:59:31;;;;;;;21.27;5.35;;;;;;;9.17;65.81;102738.00;5003378;28;20045;-60
2022/02/08 02:01:58;;;;;;;23.17;4.88;;;;;;;9.07;66.13;102738.69;5025937;28;20057;-60
2022/02/08 02:04:25;;;;;;;15.50;4.80;;;;;;;9.07;65.98;102737.88;5003972;28;20056;-60
2022/02/08 02:06:53;;;;;;;17.42;4.70;;;;;;;9.15;65.97;102737.44;5009743;28;20057;-60
2022/02/08 02:09:25;;;;;;;27.45;5.60;;;;;;;9.19;65.77;102738.56;5018618;28;20544;-61
2022/02/08 02:11:55;;;;;;;;;;;;;;;8.98;66.04;102731.13;5035257;28;20084;-60
2022/02/08 02:14:23;;;;;;;21.10;5.97;;;;;;;9.01;66.13;102730.66;5034740;28;20347;-60
2022/02/08 02:16:56;;;;;;;22.63;5.28;;;;;;;9.15;66.10;102736.59;5035075;28;20045;-61
2022/02/08 02:19:28;;;;;;;23.38;5.85;;;;;;;9.24;65.49;102737.81;5015995;28;20050;-60
2022/02/08 02:21:58;;;;;;;24.65;5.80;;;;;;;9.36;65.38;102731.13;5029262;28;20053;-60
2022/02/08 02:24:25;;;;;;;18.93;4.47;;;;;;;9.26;65.58;102728.22;5031702;28;20057;-61
2022/02/08 02:26:56;;;;;;;17.40;4.75;;;;;;;9.16;66.04;102727.25;5025339;28;20053;-60
2022/02/08 02:29:24;;;;;;;22.42;5.35;;;;;;;9.03;66.36;102731.22;5028294;28;20058;-61
2022/02/08 02:31:54;;;;;;;22.80;4.45;;;;;;;9.13;66.03;102726.69;5030304;28;20053;-61
2022/02/08 02:34:23;;;;;;;26.60;5.50;;;;;;;9.17;65.92;102718.75;5035122;28;20055;-61
2022/02/08 02:36:53;;;;;;;21.58;5.75;;;;;;;9.02;66.61;102722.16;5027439;28;20054;-61
2022/02/08 02:39:25;;;;;;;17.65;5.40;;;;;;;9.02;66.66;102726.81;5034253;28;20056;-61
2022/02/08 02:41:54;;;;;;;20.73;4.60;;;;;;;9.09;66.37;102725.53;5034348;28;20057;-61
2022/02/08 02:44:24;;;;;;;17.95;4.72;;;;;;;9.13;66.71;102717.63;5031303;28;20045;-61
2022/02/08 02:46:52;;;;;;;20.75;6.32;;;;;;;9.13;66.35;102720.38;5027129;28;20065;-61
2022/02/08 02:49:26;;;;;;;18.70;4.35;;;;;;;9.11;66.69;102708.78;5013712;28;20054;-60
2022/02/08 02:51:58;;;;;;;25.48;5.75;;;;;;;9.19;66.43;102708.34;5032531;28;20045;-60
2022/02/08 02:54:26;;;;;;;21.98;4.60;;;;;;;9.25;66.30;102711.97;5033547;28;20048;-61
2022/02/08 02:56:59;;;;;;;16.65;4.97;;;;;;;9.28;66.29;102714.22;5016683;28;20049;-61
2022/02/08 02:59:31;;;;;;;18.98;5.35;;;;;;;9.16;66.80;102711.59;5033893;28;20045;-61
2022/02/08 03:20:47;;;;;;;23.52;4.80;;;;;;;9.17;67.44;102716.00;5010701;28;20064;-60
2022/02/08 03:23:18;;;;;;;23.92;4.68;;;;;;;9.03;67.87;102717.50;4997552;28;20050;-60
2022/02/08 03:25:51;;;;;;;20.77;4.95;;;;;;;9.28;67.50;102722.47;5031833;28;20045;-60
2022/02/08 03:28:27;;;;;;;17.58;4.65;;;;;;;9.20;67.96;102723.75;5005890;28;20050;-60
2022/02/08 03:30:56;;;;;;;17.23;4.78;;;;;;;9.26;67.67;102713.66;5025957;28;20049;-60
2022/02/08 03:33:27;;;;;;;18.40;5.20;;;;;;;9.13;68.15;102720.38;5029887;28;20045;-60
2022/02/08 03:35:56;;;;;;;17.17;5.88;;;;;;;8.81;68.74;102716.63;5030015;28;20049;-60
2022/02/08 03:38:32;;;;;;;17.83;4.78;;;;;;;8.72;69.31;102716.22;5031585;28;20064;-62
2022/02/08 03:41:02;;;;;;;17.23;4.15;;;;;;;8.43;70.37;102725.66;5020871;28;20054;-61
2022/02/08 03:43:32;;;;;;;17.38;5.10;;;;;;;8.88;69.43;102718.09;5027049;28;20069;-60
2022/02/08 03:46:08;;;;;;;16.27;4.70;;;;;;;8.70;69.68;102729.38;5028631;28;20045;-63
2022/02/08 03:48:37;;;;;;;19.42;4.97;;;;;;;8.76;69.58;102733.88;5028527;28;20049;-62
2022/02/08 03:51:14;;;;;;;;;;;;;;;8.76;69.68;102733.88;5020491;28;20061;-62
2022/02/08 03:53:58;;;;;;;20.02;4.75;;;;;;;8.69;70.13;102737.88;5020648;28;19928;-61
2022/02/08 03:56:30;;;;;;;16.80;5.18;;;;;;;8.79;69.82;102729.75;5017979;28;20048;-60
2022/02/08 03:59:01;;;;;;;19.85;5.15;;;;;;;8.92;69.91;102724.75;5033202;28;20416;-60
2022/02/08 04:02:12;;;;;;;18.63;5.03;;;;;;;8.75;70.25;102732.19;5021517;28;20046;-61
2022/02/08 04:07:18;;;;;;;17.55;5.38;;;;;;;8.80;70.02;102725.94;5021292;28;20088;-61
2022/02/08 04:09:58;;;;;;;19.08;5.30;;;;;;;9.03;69.78;102728.47;5042296;28;20044;-60
2022/02/08 04:15:28;;;;;;;14.95;4.75;;;;;;;8.95;69.92;102727.00;5014694;28;20065;-61
2022/02/08 04:32:13;;;;;;;14.82;4.88;;;;;;;9.13;70.40;102736.03;5028858;28;20053;-60
2022/02/08 04:35:03;;;;;;;19.80;4.75;;;;;;;9.12;70.60;102734.38;5031098;28;20508;-61
2022/02/08 04:43:30;;;;;;;16.00;4.78;;;;;;;9.01;71.27;102725.97;5027703;28;20046;-61
2022/02/08 04:45:56;;;;;;;16.73;4.65;;;;;;;8.94;71.48;102732.75;5020634;28;20489;-60
2022/02/08 04:48:32;;;;;;;18.35;4.70;;;;;;;9.05;71.54;102737.28;5031257;28;20037;-60
2022/02/08 04:51:21;;;;;;;15.75;4.00;;;;;;;9.18;71.09;102727.84;5006409;28;20057;-61
2022/02/08 04:54:39;;;;;;;20.27;5.10;;;;;;;9.26;70.77;102725.47;5031825;28;20064;-61
2022/02/08 04:59:29;;;;;;;13.20;5.07;;;;;;;9.23;71.11;102728.75;5037396;28;20046;-61
2022/02/08 05:45:10;;;;;;;14.98;4.00;;;;;;;9.63;73.32;102720.97;5017711;28;20068;-65
2022/02/08 05:47:41;;;;;;;15.23;3.83;;;;;;;9.57;73.53;102729.44;5025569;28;20057;-64
2022/02/08 05:50:22;;;;;;;13.27;3.92;;;;;;;9.75;73.25;102721.66;5036155;28;20057;-64
2022/02/08 05:55:27;;;;;;;13.80;3.70;;;;;;;9.50;75.14;102715.03;5029845;28;20053;-64
2022/02/08 05:57:54;;;;;;;11.85;3.60;;;;;;;9.43;76.22;102722.66;5011942;28;20054;-64
2022/02/08 06:00:26;;;;;;;13.07;3.15;;;;;;;9.45;75.97;102715.00;5023672;28;20132;-65
2022/02/08 06:03:06;;;;;;;18.85;4.15;;;;;;;9.60;76.66;102715.16;5018435;28;20053;-65
2022/02/08 06:05:45;;;;;;;10.52;3.65;;;;;;;9.58;76.57;102718.16;5002867;28;20412;-65
2022/02/08 06:08:13;;;;;;;11.25;3.70;;;;;;;9.49;77.04;102714.22;5026320;28;20045;-64
2022/02/08 06:10:48;;;;;;;11.82;3.95;;;;;;;9.66;77.15;102714.13;5022974;28;20046;-65
2022/02/08 06:13:16;;;;;;;10.25;4.28;;;;;;;9.65;76.60;102717.97;5034165;28;20444;-64
2022/02/08 06:15:45;;;;;;;14.60;4.57;;;;;;;9.52;77.47;102715.63;5019731;28;20051;-64
2022/02/08 06:18:13;;;;;;;15.52;5.55;;;;;;;9.55;77.80;102717.84;5035347;28;20060;-65
2022/02/08 06:20:40;;;;;;;12.40;4.90;;;;;;;9.59;77.84;102716.25;5050175;28;20045;-64
2022/02/08 06:23:07;;;;;;;13.85;4.88;;;;;;;9.48;77.85;102714.47;5043333;28;20049;-65
2022/02/08 06:25:35;;;;;;;11.70;3.72;;;;;;;9.66;78.32;102714.13;5022987;28;20056;-65
2022/02/08 06:28:02;;;;;;;9.73;3.55;;;;;;;9.45;78.63;102706.75;5034974;28;20045;-64
2022/02/08 06:30:29;;;;;;;12.40;4.70;;;;;;;9.50;78.70;102723.31;5035870;28;20057;-65
2022/02/08 06:32:57;;;;;;;17.08;6.28;;;;;;;9.43;79.00;102719.91;5035785;28;20061;-65
2022/02/08 06:35:27;;;;;;;15.88;5.63;;;;;;;9.54;79.18;102714.25;5035184;28;20052;-65
2022/02/08 06:37:58;;;;;;;15.52;5.82;;;;;;;9.68;78.36;102725.69;5034783;28;20041;-64
2022/02/08 06:40:25;;;;;;;15.10;6.07;;;;;;;9.88;77.51;102724.00;5025383;28;20056;-64
2022/02/08 06:43:00;;;;;;;19.00;6.25;;;;;;;9.85;77.30;102719.00;5035832;28;20060;-64
2022/02/08 06:45:27;;;;;;;12.65;5.00;;;;;;;9.84;76.95;102725.59;5033213;28;20056;-65
2022/02/08 06:47:58;;;;;;;10.57;4.43;;;;;;;9.86;77.50;102733.59;5025856;28;20068;-65
2022/02/08 06:50:26;;;;;;;11.63;4.70;;;;;;;10.03;76.78;102729.66;5034294;28;20053;-65
2022/02/08 06:52:53;;;;;;;11.15;4.50;;;;;;;10.04;76.94;102742.31;5035398;28;20053;-65
2022/02/08 06:55:24;;;;;;;10.98;3.72;;;;;;;9.89;77.27;102738.56;5034076;28;20521;-60
2022/02/08 06:58:05;;;;;;;8.27;3.28;;;;;;;9.77;77.96;102735.16;5034218;28;20045;-60
2022/02/08 07:00:40;;;;;;;10.07;3.22;;;;;;;9.65;78.32;102745.47;5034881;28;20041;-64
2022/02/08 07:03:12;;;;;;;10.75;3.50;;;;;;;9.80;77.84;102751.13;5021763;28;20064;-60
2022/02/08 07:05:40;;;;;;;10.60;3.15;;;;;;;9.91;77.38;102758.41;5015526;28;20060;-60
2022/02/08 07:08:08;;;;;;;10.05;4.00;;;;;;;9.80;77.57;102751.13;5028665;28;20053;-60
2022/02/08 07:10:35;;;;;;;14.35;4.70;;;;;;;9.87;77.32;102760.03;5028454;28;20053;-60
2022/02/08 07:13:07;;;;;;;12.85;4.07;;;;;;;9.71;78.20;102759.03;5004241;28;20044;-60
2022/02/08 07:15:34;;;;;;;9.63;3.95;;;;;;;9.81;77.96;102755.56;5023733;28;20056;-65
2022/02/08 07:18:02;;;;;;;8.82;3.85;;;;;;;9.78;77.85;102750.59;5003528;28;20038;-64
2022/02/08 07:20:34;;;;;;;15.00;4.07;;;;;;;9.75;78.07;102753.84;5025759;28;20057;-64
2022/02/08 07:23:02;;;;;;;10.02;4.20;;;;;;;9.75;78.07;102760.19;5014834;28;20038;-64
2022/02/08 07:25:34;;;;;;;10.52;3.80;;;;;;;9.79;78.28;102766.84;5035625;28;20048;-61
2022/02/08 07:28:02;;;;;;;10.25;4.03;;;;;;;10.01;77.82;102769.53;5036787;28;20496;-59
2022/02/08 07:30:33;;;;;;;14.77;3.97;;;;;;;10.06;77.55;102772.31;5027618;28;20052;-59
2022/02/08 07:33:01;;;;;;;10.77;3.75;;;;;;;10.05;77.62;102768.75;5019367;28;20049;-61
2022/02/08 07:35:41;;;;;;;12.52;3.80;;;;;;;10.72;77.93;102777.34;5032982;28;20045;-62
2022/02/08 07:38:18;;;;;;;9.80;3.67;;;;;;;10.33;76.36;102775.09;5016398;28;20057;-58
2022/02/08 07:43:20;;;;;;;11.32;5.07;;;;;;;10.30;76.64;102778.38;5028465;28;20092;-58
2022/02/08 07:46:16;;;;;;;9.85;5.03;;;;;;;10.16;77.11;102778.81;5009923;28;20073;-59
2022/02/08 07:48:43;;;;;;;12.23;4.78;;;;;;;10.21;77.05;102783.53;5015882;28;20053;-59
2022/02/08 07:51:13;;;;;;;14.55;4.50;;;;;;;10.32;76.43;102768.75;5034718;28;20144;-61
2022/02/08 07:53:41;;;;;;;12.18;4.30;;;;;;;10.23;76.52;102773.91;5028118;28;20057;-60
2022/02/08 07:56:10;;;;;;;10.20;4.10;;;;;;;10.38;76.53;102775.16;5028773;28;20057;-60
2022/02/08 07:58:37;;;;;;;10.43;4.10;;;;;;;10.51;75.75;102774.72;5013608;28;20061;-60
2022/02/08 08:01:08;;;;;;;11.18;4.03;;;;;;;10.31;76.78;102777.28;5033334;28;20052;-60
2022/02/08 08:03:40;;;;;;;14.10;4.10;;;;;;;10.56;75.57;102767.34;5030956;28;20046;-59
2022/02/08 08:06:09;;;;;;;25.30;14.40;;;;;;;10.37;76.07;102771.59;5032838;28;20060;-59
2022/02/08 08:08:37;;;;;;;20.83;11.30;;;;;;;10.31;76.37;102774.53;5027874;28;20064;-58
2022/02/08 08:11:09;;;;;;;11.27;5.40;;;;;;;10.49;76.22;102768.63;5029680;28;20373;-60
2022/02/08 08:13:47;;;;;;;15.88;4.70;;;;;;;10.30;76.10;102768.22;5033265;28;20053;-60
2022/02/08 08:16:21;;;;;;;16.38;5.13;;;;;;;10.55;75.69;102773.13;5031989;28;20045;-58
2022/02/08 08:18:58;;;;;;;15.40;4.65;;;;;;;10.40;75.57;102767.47;5031931;28;20046;-58
2022/02/08 08:21:26;;;;;;;11.73;4.60;;;;;;;10.42;76.07;102759.75;5021382;28;20061;-61
2022/02/08 08:23:54;;;;;;;12.25;4.40;;;;;;;10.39;75.79;102757.53;5030756;28;20061;-60
2022/02/08 08:26:22;;;;;;;16.45;4.93;;;;;;;10.37;76.16;102768.00;5032316;28;20108;-60
2022/02/08 08:28:50;;;;;;;10.55;4.43;;;;;;;10.45;75.59;102756.47;5032105;28;20049;-59
2022/02/08 08:31:17;;;;;;;15.43;4.65;;;;;;;10.50;75.50;102762.88;5014011;28;20100;-59
2022/02/08 08:34:04;;;;;;;12.35;4.53;;;;;;;10.52;75.35;102763.44;5032172;28;20041;-61
2022/02/08 08:36:32;;;;;;;14.50;5.10;;;;;;;10.34;75.65;102758.31;5029292;28;20057;-60
2022/02/08 08:38:59;;;;;;;15.20;4.60;;;;;;;10.40;75.99;102762.78;5023822;28;20049;-59
2022/02/08 08:41:39;;;;;;;15.98;7.55;;;;;;;10.36;76.02;102766.31;5018595;28;20046;-61
2022/02/08 08:52:12;;;;;;;19.60;5.30;;;;;;;10.29;75.31;102777.56;5009222;28;20033;-61
2022/02/08 08:54:40;;;;;;;17.20;5.15;;;;;;;10.56;74.98;102783.88;5014583;28;20053;-60
2022/02/08 08:57:07;;;;;;;17.05;5.47;;;;;;;10.35;74.65;102779.28;5033257;28;20049;-61
2022/02/08 08:59:35;;;;;;;27.67;8.75;;;;;;;10.47;74.56;102774.41;5019776;28;20588;-61
2022/02/08 09:02:02;;;;;;;18.05;5.97;;;;;;;10.49;74.37;102776.91;5032821;28;20048;-59
2022/02/08 09:04:34;;;;;;;17.05;6.07;;;;;;;10.49;74.27;102776.91;4998069;28;20041;-59
2022/02/08 09:07:01;;;;;;;19.95;5.97;;;;;;;10.63;74.01;102784.47;5032998;28;20060;-57
2022/02/08 09:09:30;;;;;;;18.83;6.20;;;;;;;10.20;75.17;102777.19;5037307;28;20061;-59
2022/02/08 09:14:41;;;;;;;20.13;8.75;;;;;;;10.61;73.76;102780.31;5000136;28;20046;-57
2022/02/08 09:20:45;;;;;;;19.90;6.32;;;;;;;10.45;74.77;102778.50;5033754;28;20057;-58
2022/02/08 09:28:51;;;;;;;15.25;6.18;;;;;;;10.67;73.89;102776.50;5037148;28;20065;-55
2022/02/08 09:30:49;;;;;;;13.77;6.03;;;;;;;10.56;74.46;102769.25;5019937;28;20065;-57
2022/02/08 09:33:17;;;;;;;16.65;6.63;;;;;;;10.49;74.39;102771.41;5035789;28;20041;-59
2022/02/08 09:35:46;;;;;;;17.65;5.65;;;;;;;10.62;74.58;102769.03;5035775;28;20054;-60
2022/02/08 09:38:13;;;;;;;19.10;5.95;;;;;;;10.61;74.47;102772.03;5035623;28;20038;-56
2022/02/08 09:40:41;;;;;;;18.48;6.20;;;;;;;10.46;74.64;102769.97;5037371;28;20056;-58
2022/02/08 09:43:11;;;;;;;19.17;6.35;;;;;;;10.63;74.30;102767.94;5019044;28;20471;-58
2022/02/08 09:45:38;;;;;;;;;;;;;;;10.69;73.85;102764.13;5033480;28;20057;-60
2022/02/08 09:48:14;;;;;;;18.67;6.53;;;;;;;10.64;74.27;102771.50;5018838;28;19921;-56
2022/02/08 09:50:42;;;;;;;16.67;5.32;;;;;;;10.78;74.39;102762.53;5032367;28;20049;-59
2022/02/08 09:53:13;;;;;;;13.93;6.13;;;;;;;10.66;74.46;102761.91;5035274;28;20057;-56
2022/02/08 09:55:43;;;;;;;16.20;6.63;;;;;;;10.61;74.47;102761.84;5035646;28;20515;-60
2022/02/08 09:58:10;;;;;;;20.67;8.85;;;;;;;10.73;74.67;102768.00;5034406;28;20056;-60
2022/02/08 10:00:39;;;;;;;16.70;7.60;;;;;;;10.86;73.98;102759.25;5036925;28;20054;-57
2022/02/08 10:03:09;;;;;;;14.57;6.25;;;;;;;10.78;73.66;102759.78;5035954;28;20060;-59
2022/02/08 10:05:41;;;;;;;11.52;5.55;;;;;;;10.97;73.44;102757.41;5035381;28;20064;-60
2022/02/08 10:08:09;;;;;;;19.35;6.90;;;;;;;10.84;73.95;102753.22;5037425;28;20045;-59
2022/02/08 10:10:36;;;;;;;23.88;12.93;;;;;;;11.11;73.12;102753.91;5032018;28;20045;-57
2022/02/08 10:24:07;;;;;;;14.73;5.97;;;;;;;11.06;73.61;102753.88;5031045;28;20428;-59
2022/02/08 10:29:25;;;;;;;15.27;5.80;;;;;;;11.18;73.75;102770.22;5027418;28;20053;-60
2022/02/08 10:40:07;;;;;;;13.65;4.93;;;;;;;11.49;72.60;102760.19;5041157;28;20048;-58
2022/02/08 10:42:36;;;;;;;16.23;5.57;;;;;;;11.46;72.83;102761.53;5044462;28;20049;-56
2022/02/08 10:45:18;;;;;;;16.02;5.40;;;;;;;11.75;71.92;102751.72;5015933;28;20041;-58
2022/02/08 10:47:54;;;;;;;16.67;5.45;;;;;;;11.47;72.43;102759.59;5033066;28;20050;-59
2022/02/08 10:50:23;;;;;;;11.57;4.93;;;;;;;11.32;73.73;102760.38;5034408;28;20056;-57
2022/02/08 10:52:50;;;;;;;16.95;5.40;;;;;;;11.53;72.79;102761.28;5026299;28;20053;-60
2022/02/08 10:55:34;;;;;;;12.75;5.40;;;;;;;11.56;72.48;102758.00;5022971;28;20057;-59
2022/02/08 11:00:47;;;;;;;11.15;6.20;;;;;;;11.95;71.66;102757.31;5027017;28;20049;-63
2022/02/08 11:03:20;;;;;;;15.30;6.72;;;;;;;11.96;71.59;102756.19;5015463;28;20504;-63
2022/02/08 11:06:13;;;;;;;12.18;5.65;;;;;;;12.05;70.58;102754.56;5016520;28;20050;-64
2022/02/08 11:14:28;;;;;;;12.65;4.03;;;;;;;12.09;71.11;102744.63;5017980;28;20522;-63
2022/02/08 11:25:06;;;;;;;11.98;4.40;;;;;;;12.13;71.13;102728.34;5021054;28;20061;-64
2022/02/08 11:27:40;;;;;;;10.65;3.70;;;;;;;12.28;70.33;102736.63;5031682;28;20042;-64
2022/02/08 11:30:16;;;;;;;11.20;4.68;;;;;;;12.60;69.61;102730.81;5032360;28;20048;-64
2022/02/08 11:32:57;;;;;;;11.15;4.78;;;;;;;12.41;69.91;102730.56;5025800;28;20053;-63
2022/02/08 12:02:46;;;;;;;14.48;5.38;;;;;;;12.16;70.74;102697.38;5028735;28;20042;-64
2022/02/08 12:07:53;;;;;;;22.25;10.25;;;;;;;12.41;69.87;102689.91;5033306;28;20053;-64
2022/02/08 12:13:14;;;;;;;12.50;6.00;;;;;;;12.48;69.80;102679.41;5033683;28;20048;-64
2022/02/08 12:35:57;;;;;;;14.75;7.32;;;;;;;12.41;72.29;102664.22;5013438;28;20056;-65
2022/02/08 12:58:14;;;;;;;7.90;3.10;;;;;;;12.50;69.95;102634.88;5033575;28;20053;-66
2022/02/08 13:00:58;;;;;;;6.00;2.60;;;;;;;12.56;69.42;102630.19;5036065;28;20053;-67
2022/02/08 13:14:24;;;;;;;5.68;2.47;;;;;;;12.45;69.79;102629.38;5032501;28;20091;-66
2022/02/08 14:06:22;;;;;;;10.23;3.80;;;;;;;12.44;68.20;102592.63;5021537;28;20045;-66
2022/02/08 14:22:08;;;;;;;8.05;2.88;;;;;;;12.88;68.30;102587.22;5010722;28;20054;-66
2022/02/08 14:30:11;;;;;;;7.05;3.22;;;;;;;12.65;67.95;102585.09;5031835;28;20045;-61
2022/02/08 15:00:20;;;;;;;11.55;3.88;;;;;;;13.00;67.42;102578.59;5032154;28;20171;-59
2022/02/08 15:13:11;;;;;;;7.18;3.22;;;;;;;13.10;66.96;102575.78;5030516;28;20053;-65
2022/02/08 15:18:31;;;;;;;9.70;3.95;;;;;;;12.17;68.84;102574.72;5001268;28;20049;-64
2022/02/08 15:21:02;;;;;;;8.45;4.57;;;;;;;12.24;69.17;102573.31;5031061;28;20060;-66
2022/02/08 15:23:35;;;;;;;9.52;4.15;;;;;;;12.32;68.82;102585.75;5027496;28;20073;-65
2022/02/08 15:26:03;;;;;;;10.18;4.00;;;;;;;12.33;68.66;102579.94;5027867;28;20060;-64
2022/02/08 15:28:31;;;;;;;7.93;4.55;;;;;;;12.44;68.31;102580.75;5026237;28;20072;-64
2022/02/08 15:30:58;;;;;;;7.22;4.35;;;;;;;12.47;68.66;102580.19;5034165;28;20519;-65
2022/02/08 15:33:26;;;;;;;7.55;4.10;;;;;;;12.35;68.51;102579.66;5034172;28;20057;-64
2022/02/08 15:35:55;;;;;;;7.90;3.95;;;;;;;12.49;68.13;102583.50;5021919;28;20050;-64
2022/02/08 15:38:28;;;;;;;7.63;3.95;;;;;;;12.56;67.84;102581.25;5026973;28;20045;-65
2022/02/08 15:40:57;;;;;;;14.70;4.90;;;;;;;12.45;68.02;102577.69;5033695;28;20045;-64
2022/02/08 15:43:25;;;;;;;11.48;4.28;;;;;;;12.58;67.94;102580.97;5034356;28;20037;-64
2022/02/08 15:46:03;;;;;;;10.00;4.57;;;;;;;12.59;67.68;102571.59;5034491;28;20056;-65
2022/02/08 15:48:33;;;;;;;11.23;4.90;;;;;;;12.67;67.50;102573.75;5029556;28;20057;-64
2022/02/08 15:51:12;;;;;;;17.05;7.85;;;;;;;12.57;67.64;102571.84;5032267;28;20045;-64
2022/02/08 15:53:59;;;;;;;7.93;4.70;;;;;;;12.35;68.59;102577.72;5027471;28;20052;-65
2022/02/08 15:56:36;;;;;;;8.95;4.50;;;;;;;12.21;69.27;102570.28;5022290;28;20049;-65
2022/02/08 16:07:09;;;;;;;8.10;4.75;;;;;;;12.52;69.03;102560.00;5026985;28;20065;-64
2022/02/08 16:47:03;;;;;;;8.80;2.97;;;;;;;12.63;68.35;102569.91;5025283;28;20076;-63
2022/02/08 16:49:48;;;;;;;7.75;3.72;;;;;;;12.51;68.67;102580.44;5032316;28;20042;-66
2022/02/08 16:58:07;;;;;;;7.30;3.22;;;;;;;12.77;67.79;102569.03;5037649;28;20058;-65
2022/02/08 17:00:36;;;;;;;7.68;3.75;;;;;;;12.57;68.49;102582.09;5025562;28;20124;-64
2022/02/08 17:03:17;;;;;;;5.03;3.03;;;;;;;12.52;68.88;102579.34;5035484;28;20064;-65
2022/02/08 17:05:44;;;;;;;6.90;3.47;;;;;;;12.34;69.11;102576.06;5029765;28;20057;-64
2022/02/08 17:08:13;;;;;;;6.70;3.05;;;;;;;12.22;69.52;102581.06;5038029;28;20062;-64
2022/02/08 17:10:45;;;;;;;7.95;3.90;;;;;;;12.04;70.46;102578.06;4994648;28;20064;-63
2022/02/08 17:13:29;;;;;;;6.85;4.03;;;;;;;12.23;70.38;102581.91;5036766;28;20132;-63
2022/02/08 17:19:33;;;;;;;6.57;3.42;;;;;;;12.32;70.17;102581.06;5035487;28;20503;-64
2022/02/08 17:46:00;;;;;;;;;;;;;;;11.91;71.23;102582.22;5023173;28;20050;-66
2022/02/08 17:48:30;;;;;;;11.80;4.63;;;;;;;11.79;71.77;102589.09;5031282;28;20287;-68
2022/02/08 17:50:59;;;;;;;10.43;4.72;;;;;;;11.89;71.51;102584.41;5031328;28;20054;-65
2022/02/08 17:53:26;;;;;;;9.85;4.32;;;;;;;11.87;71.63;102594.09;5017424;28;20054;-65
2022/02/08 17:55:53;;;;;;;8.63;4.95;;;;;;;11.66;72.17;102595.19;5007528;28;20041;-67
2022/02/08 17:58:20;;;;;;;10.27;4.80;;;;;;;11.69;72.38;102594.63;5014821;28;20054;-65
2022/02/08 18:00:49;;;;;;;8.23;5.53;;;;;;;11.84;71.97;102591.88;5018524;28;20058;-65
2022/02/08 18:03:17;;;;;;;25.50;14.88;;;;;;;11.84;71.95;102597.38;5034142;28;20041;-65
2022/02/08 18:05:45;;;;;;;17.00;10.18;;;;;;;11.80;71.95;102586.06;5035172;28;20426;-67
2022/02/08 18:08:13;;;;;;;13.55;7.25;;;;;;;11.62;72.33;102591.28;5016901;28;20449;-66
2022/02/08 18:10:44;;;;;;;11.10;5.60;;;;;;;11.73;71.93;102591.06;5035987;28;20057;-66
2022/02/08 18:13:15;;;;;;;10.20;5.82;;;;;;;11.77;72.32;102592.16;5035885;28;20048;-65
2022/02/08 18:15:42;;;;;;;;;;;;;;;11.51;72.91;102589.59;5031033;28;20048;-66
2022/02/08 18:18:23;;;;;;;13.90;7.15;;;;;;;11.74;72.23;102589.94;5015624;28;19940;-66
2022/02/08 18:50:24;;;;;;;10.23;6.00;;;;;;;11.53;72.86;102595.69;5035762;28;20049;-65
2022/02/08 18:57:39;;;;;;;10.27;5.60;;;;;;;11.64;72.42;102597.38;4999281;28;20049;-61
2022/02/08 19:08:03;;;;;;;10.85;5.75;;;;;;;11.51;72.72;102598.72;5025214;28;20393;-57
2022/02/08 19:21:47;;;;;;;12.60;6.25;;;;;;;11.03;75.34;102588.97;5038167;28;20045;-57
2022/02/08 19:24:19;;;;;;;9.20;5.95;;;;;;;11.28;75.16;102593.72;5017250;28;20061;-60
2022/02/08 19:26:48;;;;;;;13.52;7.70;;;;;;;11.30;74.28;102589.59;5035832;28;20054;-60
2022/02/08 19:29:17;;;;;;;13.15;7.15;;;;;;;11.27;74.54;102587.38;5022876;28;20492;-60
2022/02/08 19:31:54;;;;;;;10.90;6.60;;;;;;;11.38;74.16;102581.88;5016617;28;20052;-61
2022/02/08 19:34:22;;;;;;;12.02;7.78;;;;;;;11.14;75.24;102587.88;5034957;28;20045;-66
2022/02/08 19:36:52;;;;;;;14.70;8.18;;;;;;;11.17;74.58;102587.38;5014883;28;20049;-65
2022/02/08 19:39:20;;;;;;;12.75;7.55;;;;;;;11.03;75.27;102583.47;5000945;28;20061;-67
2022/02/08 19:41:49;;;;;;;11.02;7.60;;;;;;;11.45;74.53;102587.97;5025403;28;20050;-67
2022/02/08 19:44:19;;;;;;;11.88;7.10;;;;;;;11.28;73.79;102588.19;5012993;28;20053;-66
2022/02/08 19:46:48;;;;;;;11.50;6.63;;;;;;;11.18;74.36;102583.50;5013869;28;20045;-65
2022/02/08 19:49:17;;;;;;;12.45;7.18;;;;;;;10.80;76.20;102581.16;4988652;28;20465;-65
2022/02/08 19:51:45;;;;;;;10.73;6.63;;;;;;;11.06;75.50;102593.94;5032467;28;20080;-64